sensor_id;sensor_type;location;lat;lon;timestamp;pressure;altitude;pressure_sealevel;temperature;humidity
34297;BME280;20564;42.902;25.336;2023-03-15T00:01:16;96062.78;;;6.74;47.13
34297;BME280;20564;42.902;25.336;2023-03-15T00:04:18;96068.28;;;6.71;48.08
34297;BME280;20564;42.902;25.336;2023-03-15T00:07:03;96067.22;;;6.64;48.07
34297;BME280;20564;42.902;25.336;2023-03-15T00:09:52;96063.81;;;6.53;49.32
34297;BME280;20564;42.902;25.336;2023-03-15T00:12:24;96068.81;;;6.37;49.85
34297;BME280;20564;42.902;25.336;2023-03-15T00:14:56;96072.53;;;6.25;50.07
34297;BME280;20564;42.902;25.336;2023-03-15T00:17:30;96073.25;;;6.17;50.22
34297;BME280;20564;42.902;25.336;2023-03-15T00:20:28;96071.63;;;6.07;51.59
34297;BME280;20564;42.902;25.336;2023-03-15T00:22:58;96065.88;;;5.93;52.11
34297;BME280;20564;42.902;25.336;2023-03-15T00:25:42;96071.34;;;5.90;52.48
34297;BME280;20564;42.902;25.336;2023-03-15T00:28:11;96058.16;;;5.82;53.05
34297;BME280;20564;42.902;25.336;2023-03-15T00:31:29;96053.75;;;5.73;52.49
34297;BME280;20564;42.902;25.336;2023-03-15T00:34:17;96059.94;;;5.72;53.22
34297;BME280;20564;42.902;25.336;2023-03-15T00:37:25;96048.53;;;5.73;53.73
34297;BME280;20564;42.902;25.336;2023-03-15T00:40:10;96046.91;;;5.72;53.04
34297;BME280;20564;42.902;25.336;2023-03-15T00:42:43;96039.06;;;5.82;54.88
34297;BME280;20564;42.902;25.336;2023-03-15T00:45:27;96032.75;;;5.74;55.65
34297;BME280;20564;42.902;25.336;2023-03-15T00:48:28;96025.84;;;5.73;54.48
34297;BME280;20564;42.902;25.336;2023-03-15T00:51:16;96022.16;;;5.66;53.74
34297;BME280;20564;42.902;25.336;2023-03-15T00:53:56;96017.47;;;5.70;54.97
34297;BME280;20564;42.902;25.336;2023-03-15T00:56:47;96020.81;;;5.52;56.29
34297;BME280;20564;42.902;25.336;2023-03-15T00:59:32;96013.38;;;5.48;56.20
34297;BME280;20564;42.902;25.336;2023-03-15T01:02:04;96003.22;;;5.45;57.53
34297;BME280;20564;42.902;25.336;2023-03-15T01:08:17;95990.03;;;5.46;55.49
34297;BME280;20564;42.902;25.336;2023-03-15T01:11:13;95983.84;;;5.47;56.80
34297;BME280;20564;42.902;25.336;2023-03-15T01:14:01;95986.19;;;5.50;57.44
34297;BME280;20564;42.902;25.336;2023-03-15T01:16:57;95982.59;;;5.51;57.62
34297;BME280;20564;42.902;25.336;2023-03-15T01:19:35;95981.50;;;5.44;57.48
34297;BME280;20564;42.902;25.336;2023-03-15T01:22:05;95981.50;;;5.44;57.09
34297;BME280;20564;42.902;25.336;2023-03-15T01:24:43;95973.28;;;5.39;58.83
34297;BME280;20564;42.902;25.336;2023-03-15T01:27:30;95966.44;;;5.38;57.78
34297;BME280;20564;42.902;25.336;2023-03-15T01:30:47;95963.38;;;5.33;58.96
34297;BME280;20564;42.902;25.336;2023-03-15T01:34:12;95970.13;;;5.26;58.61
34297;BME280;20564;42.902;25.336;2023-03-15T01:36:45;95960.38;;;5.28;60.46
34297;BME280;20564;42.902;25.336;2023-03-15T01:39:47;95959.84;;;5.34;59.53
34297;BME280;20564;42.902;25.336;2023-03-15T01:42:17;95962.16;;;5.37;59.75
34297;BME280;20564;42.902;25.336;2023-03-15T01:48:45;95955.00;;;5.39;60.42
34297;BME280;20564;42.902;25.336;2023-03-15T01:51:35;95943.38;;;5.24;60.86
34297;BME280;20564;42.902;25.336;2023-03-15T01:55:20;95940.59;;;5.25;60.54
34297;BME280;20564;42.902;25.336;2023-03-15T01:58:13;95956.13;;;5.27;62.02
34297;BME280;20564;42.902;25.336;2023-03-15T02:01:23;95954.47;;;5.26;62.83
34297;BME280;20564;42.902;25.336;2023-03-15T02:04:03;95945.28;;;5.22;61.19
34297;BME280;20564;42.902;25.336;2023-03-15T02:06:47;95946.78;;;5.15;62.10
34297;BME280;20564;42.902;25.336;2023-03-15T02:13:38;95948.56;;;5.24;62.50
34297;BME280;20564;42.902;25.336;2023-03-15T02:16:23;95950.09;;;5.17;62.87
34297;BME280;20564;42.902;25.336;2023-03-15T02:26:29;95937.72;;;5.19;62.92
34297;BME280;20564;42.902;25.336;2023-03-15T02:32:29;95944.16;;;5.15;63.25
34297;BME280;20564;42.902;25.336;2023-03-15T02:35:11;95944.16;;;5.15;63.77
34297;BME280;20564;42.902;25.336;2023-03-15T02:37:53;95941.44;;;5.06;62.65
34297;BME280;20564;42.902;25.336;2023-03-15T02:40:51;95953.13;;;5.12;63.42
34297;BME280;20564;42.902;25.336;2023-03-15T02:43:36;95951.06;;;5.16;63.47
34297;BME280;20564;42.902;25.336;2023-03-15T02:46:19;95947.47;;;5.17;64.23
34297;BME280;20564;42.902;25.336;2023-03-15T02:49:05;95957.63;;;5.20;63.44
34297;BME280;20564;42.902;25.336;2023-03-15T02:51:48;95946.50;;;5.18;63.58
34297;BME280;20564;42.902;25.336;2023-03-15T02:57:46;95946.38;;;5.29;61.03
34297;BME280;20564;42.902;25.336;2023-03-15T03:00:37;95945.81;;;5.25;62.81
34297;BME280;20564;42.902;25.336;2023-03-15T03:03:10;95950.47;;;5.22;64.21
34297;BME280;20564;42.902;25.336;2023-03-15T03:06:16;95952.97;;;5.23;62.45
34297;BME280;20564;42.902;25.336;2023-03-15T03:08:54;95956.53;;;5.32;62.54
34297;BME280;20564;42.902;25.336;2023-03-15T03:11:44;95948.97;;;5.39;63.03
34297;BME280;20564;42.902;25.336;2023-03-15T03:14:17;95950.34;;;5.33;64.17
34297;BME280;20564;42.902;25.336;2023-03-15T03:17:02;95956.53;;;5.42;61.86
34297;BME280;20564;42.902;25.336;2023-03-15T03:19:37;95956.09;;;5.46;60.36
34297;BME280;20564;42.902;25.336;2023-03-15T03:22:06;95963.41;;;5.52;62.29
34297;BME280;20564;42.902;25.336;2023-03-15T03:24:36;95956.50;;;5.51;64.82
34297;BME280;20564;42.902;25.336;2023-03-15T03:27:12;95951.56;;;5.48;65.16
34297;BME280;20564;42.902;25.336;2023-03-15T03:29:58;95962.31;;;5.45;65.35
34297;BME280;20564;42.902;25.336;2023-03-15T03:32:51;95945.81;;;5.35;65.21
34297;BME280;20564;42.902;25.336;2023-03-15T03:35:36;95953.22;;;5.30;65.25
34297;BME280;20564;42.902;25.336;2023-03-15T03:38:28;95952.81;;;5.25;63.63
34297;BME280;20564;42.902;25.336;2023-03-15T03:41:35;95943.91;;;5.27;61.52
34297;BME280;20564;42.902;25.336;2023-03-15T03:44:16;95946.38;;;5.29;64.21
34297;BME280;20564;42.902;25.336;2023-03-15T03:47:31;95949.69;;;5.31;63.91
34297;BME280;20564;42.902;25.336;2023-03-15T03:50:21;95945.69;;;5.27;64.51
34297;BME280;20564;42.902;25.336;2023-03-15T03:52:55;95948.44;;;5.25;64.00
34297;BME280;20564;42.902;25.336;2023-03-15T03:55:53;95946.38;;;5.29;63.43
34297;BME280;20564;42.902;25.336;2023-03-15T03:59:10;95947.19;;;5.29;64.22
34297;BME280;20564;42.902;25.336;2023-03-15T04:02:36;95948.69;;;5.22;64.18
34297;BME280;20564;42.902;25.336;2023-03-15T04:05:28;95948.56;;;5.24;64.84
34297;BME280;20564;42.902;25.336;2023-03-15T04:08:05;95942.00;;;5.20;63.71
34297;BME280;20564;42.902;25.336;2023-03-15T04:10:41;95944.88;;;5.17;64.27
34297;BME280;20564;42.902;25.336;2023-03-15T04:13:36;95939.22;;;5.12;64.01
34297;BME280;20564;42.902;25.336;2023-03-15T04:16:04;95934.97;;;5.11;64.60
34297;BME280;20564;42.902;25.336;2023-03-15T04:18:32;95931.00;;;5.06;66.32
34297;BME280;20564;42.902;25.336;2023-03-15T04:21:15;95933.06;;;5.03;65.99
34297;BME280;20564;42.902;25.336;2023-03-15T04:23:54;95933.47;;;5.08;65.74
34297;BME280;20564;42.902;25.336;2023-03-15T04:26:30;95935.41;;;5.06;66.18
34297;BME280;20564;42.902;25.336;2023-03-15T04:28:57;95940.59;;;4.96;66.59
34297;BME280;20564;42.902;25.336;2023-03-15T04:31:25;95936.75;;;5.00;66.57
34297;BME280;20564;42.902;25.336;2023-03-15T04:33:54;95932.91;;;4.95;66.98
34297;BME280;20564;42.902;25.336;2023-03-15T04:36:22;95940.59;;;4.87;66.88
34297;BME280;20564;42.902;25.336;2023-03-15T04:38:50;95945.28;;;4.83;66.91
34297;BME280;20564;42.902;25.336;2023-03-15T04:41:18;95952.38;;;4.81;67.97
34297;BME280;20564;42.902;25.336;2023-03-15T04:43:45;95947.16;;;4.81;68.26
34297;BME280;20564;42.902;25.336;2023-03-15T04:46:20;95952.13;;;4.84;67.50
34297;BME280;20564;42.902;25.336;2023-03-15T04:48:51;95950.19;;;4.86;68.00
34297;BME280;20564;42.902;25.336;2023-03-15T04:51:19;95948.13;;;4.80;67.22
34297;BME280;20564;42.902;25.336;2023-03-15T04:53:46;95955.69;;;4.83;67.79
34297;BME280;20564;42.902;25.336;2023-03-15T04:56:13;95948.84;;;4.92;68.07
34297;BME280;20564;42.902;25.336;2023-03-15T04:58:41;95958.19;;;4.94;67.03
34297;BME280;20564;42.902;25.336;2023-03-15T05:01:18;95957.06;;;4.97;68.23
34297;BME280;20564;42.902;25.336;2023-03-15T05:03:46;95955.41;;;4.96;67.25
34297;BME280;20564;42.902;25.336;2023-03-15T05:06:14;95946.06;;;4.93;67.78
34297;BME280;20564;42.902;25.336;2023-03-15T05:08:45;95945.00;;;4.96;67.35
34297;BME280;20564;42.902;25.336;2023-03-15T05:11:13;95951.03;;;4.96;68.35
34297;BME280;20564;42.902;25.336;2023-03-15T05:13:47;95948.00;;;5.11;67.54
34297;BME280;20564;42.902;25.336;2023-03-15T05:16:19;95941.16;;;5.10;66.49
34297;BME280;20564;42.902;25.336;2023-03-15T05:18:50;95935.13;;;5.09;68.07
34297;BME280;20564;42.902;25.336;2023-03-15T05:21:19;95939.78;;;5.25;66.49
34297;BME280;20564;42.902;25.336;2023-03-15T05:24:01;95931.56;;;5.20;66.48
34297;BME280;20564;42.902;25.336;2023-03-15T05:26:46;95917.81;;;5.18;67.34
34297;BME280;20564;42.902;25.336;2023-03-15T05:29:14;95922.75;;;5.21;66.79
34297;BME280;20564;42.902;25.336;2023-03-15T05:31:41;95919.19;;;5.22;66.93
34297;BME280;20564;42.902;25.336;2023-03-15T05:34:12;95914.25;;;5.28;67.21
34297;BME280;20564;42.902;25.336;2023-03-15T05:37:02;95916.16;;;5.36;66.37
34297;BME280;20564;42.902;25.336;2023-03-15T05:39:42;95911.47;;;5.40;67.16
34297;BME280;20564;42.902;25.336;2023-03-15T05:42:15;95911.91;;;5.45;65.73
34297;BME280;20564;42.902;25.336;2023-03-15T05:45:23;95913.38;;;5.57;65.49
34297;BME280;20564;42.902;25.336;2023-03-15T05:47:51;95917.78;;;5.56;66.91
34297;BME280;20564;42.902;25.336;2023-03-15T05:50:23;95912.28;;;5.60;66.91
34297;BME280;20564;42.902;25.336;2023-03-15T05:53:26;95902.63;;;5.70;67.39
34297;BME280;20564;42.902;25.336;2023-03-15T05:56:19;95890.19;;;5.91;64.53
34297;BME280;20564;42.902;25.336;2023-03-15T05:58:53;95882.63;;;5.98;64.16
34297;BME280;20564;42.902;25.336;2023-03-15T06:04:28;95888.75;;;6.16;63.91
34297;BME280;20564;42.902;25.336;2023-03-15T06:07:18;95888.53;;;6.27;63.31
34297;BME280;20564;42.902;25.336;2023-03-15T06:09:51;95898.50;;;6.42;63.71
34297;BME280;20564;42.902;25.336;2023-03-15T06:12:35;95898.31;;;6.53;63.86
34297;BME280;20564;42.902;25.336;2023-03-15T06:15:11;95905.19;;;6.72;63.69
34297;BME280;20564;42.902;25.336;2023-03-15T06:17:41;95904.91;;;6.93;62.62
34297;BME280;20564;42.902;25.336;2023-03-15T06:20:11;95906.94;;;7.17;62.19
34297;BME280;20564;42.902;25.336;2023-03-15T06:22:51;95914.75;;;7.35;60.98
34297;BME280;20564;42.902;25.336;2023-03-15T06:25:20;95904.88;;;7.46;61.08
34297;BME280;20564;42.902;25.336;2023-03-15T06:27:49;95903.66;;;7.59;60.65
34297;BME280;20564;42.902;25.336;2023-03-15T06:30:43;95908.38;;;7.81;59.46
34297;BME280;20564;42.902;25.336;2023-03-15T06:33:28;95903.00;;;8.17;56.02
34297;BME280;20564;42.902;25.336;2023-03-15T06:40:16;95890.47;;;8.79;52.81
34297;BME280;20564;42.902;25.336;2023-03-15T06:42:44;95895.44;;;9.07;53.04
34297;BME280;20564;42.902;25.336;2023-03-15T06:45:12;95894.78;;;9.29;52.55
34297;BME280;20564;42.902;25.336;2023-03-15T06:50:23;95877.34;;;9.77;51.29
34297;BME280;20564;42.902;25.336;2023-03-15T06:53:54;95892.25;;;9.93;50.54
34297;BME280;20564;42.902;25.336;2023-03-15T06:59:10;95876.41;;;10.26;47.08
34297;BME280;20564;42.902;25.336;2023-03-15T07:01:40;95863.22;;;10.34;44.05
34297;BME280;20564;42.902;25.336;2023-03-15T07:04:09;95867.81;;;10.40;44.50
34297;BME280;20564;42.902;25.336;2023-03-15T07:06:36;95865.25;;;10.55;46.07
34297;BME280;20564;42.902;25.336;2023-03-15T07:09:20;95867.16;;;10.69;45.14
34297;BME280;20564;42.902;25.336;2023-03-15T07:11:48;95864.72;;;10.91;43.00
34297;BME280;20564;42.902;25.336;2023-03-15T07:14:29;95863.66;;;11.00;43.10
34297;BME280;20564;42.902;25.336;2023-03-15T07:16:56;95874.16;;;11.08;43.25
34297;BME280;20564;42.902;25.336;2023-03-15T07:19:25;95870.22;;;11.04;41.63
34297;BME280;20564;42.902;25.336;2023-03-15T07:22:04;95867.97;;;11.01;40.74
34297;BME280;20564;42.902;25.336;2023-03-15T07:24:32;95857.69;;;11.06;41.95
34297;BME280;20564;42.902;25.336;2023-03-15T07:27:02;95863.91;;;11.13;42.20
34297;BME280;20564;42.902;25.336;2023-03-15T07:29:31;95864.59;;;11.07;41.01
34297;BME280;20564;42.902;25.336;2023-03-15T07:32:27;95854.59;;;11.25;40.17
34297;BME280;20564;42.902;25.336;2023-03-15T07:35:01;95856.16;;;11.34;40.07
34297;BME280;20564;42.902;25.336;2023-03-15T07:37:50;95839.78;;;11.24;40.64
34297;BME280;20564;42.902;25.336;2023-03-15T07:40:27;95842.84;;;11.13;40.51
34297;BME280;20564;42.902;25.336;2023-03-15T07:43:02;95851.38;;;11.15;39.98
34297;BME280;20564;42.902;25.336;2023-03-15T07:45:32;95840.94;;;11.22;39.28
34297;BME280;20564;42.902;25.336;2023-03-15T07:48:14;95836.25;;;11.32;40.56
34297;BME280;20564;42.902;25.336;2023-03-15T07:50:42;95847.97;;;11.29;40.54
34297;BME280;20564;42.902;25.336;2023-03-15T07:53:11;95830.53;;;11.28;40.32
34297;BME280;20564;42.902;25.336;2023-03-15T07:55:46;95838.34;;;11.37;39.93
34297;BME280;20564;42.902;25.336;2023-03-15T07:58:20;95830.19;;;11.31;39.71
34297;BME280;20564;42.902;25.336;2023-03-15T08:00:49;95830.31;;;11.53;39.83
34297;BME280;20564;42.902;25.336;2023-03-15T08:03:26;95824.25;;;11.82;39.28
34297;BME280;20564;42.902;25.336;2023-03-15T08:05:54;95833.38;;;12.09;38.43
34297;BME280;20564;42.902;25.336;2023-03-15T08:08:23;95834.81;;;12.26;38.91
34297;BME280;20564;42.902;25.336;2023-03-15T08:11:03;95836.63;;;12.41;39.08
34297;BME280;20564;42.902;25.336;2023-03-15T08:13:30;95830.81;;;12.30;38.24
34297;BME280;20564;42.902;25.336;2023-03-15T08:16:31;95833.13;;;12.55;38.73
34297;BME280;20564;42.902;25.336;2023-03-15T08:19:13;95828.81;;;12.69;38.85
34297;BME280;20564;42.902;25.336;2023-03-15T08:21:40;95834.75;;;12.92;36.88
34297;BME280;20564;42.902;25.336;2023-03-15T08:24:11;95839.28;;;12.98;37.39
34297;BME280;20564;42.902;25.336;2023-03-15T08:26:39;95829.53;;;12.99;37.44
34297;BME280;20564;42.902;25.336;2023-03-15T08:29:13;95846.47;;;13.26;38.15
34297;BME280;20564;42.902;25.336;2023-03-15T08:31:42;95837.03;;;13.17;36.76
34297;BME280;20564;42.902;25.336;2023-03-15T08:34:10;95851.34;;;13.08;36.66
34297;BME280;20564;42.902;25.336;2023-03-15T08:36:39;95846.09;;;12.71;37.83
34297;BME280;20564;42.902;25.336;2023-03-15T08:39:11;95842.44;;;12.51;40.87
34297;BME280;20564;42.902;25.336;2023-03-15T08:41:39;95836.50;;;12.49;40.56
34297;BME280;20564;42.902;25.336;2023-03-15T08:44:23;95838.44;;;12.40;39.24
34297;BME280;20564;42.902;25.336;2023-03-15T08:46:51;95836.53;;;12.34;39.69
34297;BME280;20564;42.902;25.336;2023-03-15T08:49:19;95826.44;;;12.38;39.49
34297;BME280;20564;42.902;25.336;2023-03-15T08:51:46;95834.09;;;12.33;39.71
34297;BME280;20564;42.902;25.336;2023-03-15T08:54:14;95825.00;;;12.57;39.00
34297;BME280;20564;42.902;25.336;2023-03-15T08:56:52;95819.53;;;12.73;39.03
34297;BME280;20564;42.902;25.336;2023-03-15T08:59:20;95824.00;;;12.72;38.61
34297;BME280;20564;42.902;25.336;2023-03-15T09:01:59;95818.22;;;12.84;38.87
34297;BME280;20564;42.902;25.336;2023-03-15T09:04:33;95819.31;;;12.74;37.93
34297;BME280;20564;42.902;25.336;2023-03-15T09:07:12;95824.03;;;12.79;38.87
34297;BME280;20564;42.902;25.336;2023-03-15T09:09:42;95813.66;;;12.77;37.82
34297;BME280;20564;42.902;25.336;2023-03-15T09:12:18;95803.59;;;12.66;37.55
34297;BME280;20564;42.902;25.336;2023-03-15T09:14:48;95800.94;;;12.45;37.83
34297;BME280;20564;42.902;25.336;2023-03-15T09:17:18;95806.09;;;12.53;38.48
34297;BME280;20564;42.902;25.336;2023-03-15T09:19:46;95801.09;;;12.58;38.45
34297;BME280;20564;42.902;25.336;2023-03-15T09:22:17;95804.28;;;12.75;37.73
34297;BME280;20564;42.902;25.336;2023-03-15T09:25:04;95801.97;;;12.87;38.26
34297;BME280;20564;42.902;25.336;2023-03-15T09:27:35;95793.31;;;12.93;37.21
34297;BME280;20564;42.902;25.336;2023-03-15T09:30:03;95797.31;;;13.10;38.54
34297;BME280;20564;42.902;25.336;2023-03-15T09:32:33;95794.31;;;13.13;36.79
34297;BME280;20564;42.902;25.336;2023-03-15T09:35:06;95788.00;;;13.36;37.81
34297;BME280;20564;42.902;25.336;2023-03-15T09:37:35;95785.66;;;13.47;36.22
34297;BME280;20564;42.902;25.336;2023-03-15T09:40:03;95779.97;;;13.50;35.65
34297;BME280;20564;42.902;25.336;2023-03-15T09:43:02;95775.41;;;13.38;36.19
34297;BME280;20564;42.902;25.336;2023-03-15T09:48:45;95754.13;;;13.81;36.05
34297;BME280;20564;42.902;25.336;2023-03-15T09:51:37;95753.81;;;14.04;34.92
34297;BME280;20564;42.902;25.336;2023-03-15T09:56:52;95753.06;;;14.16;34.26
34297;BME280;20564;42.902;25.336;2023-03-15T09:59:31;95754.25;;;14.07;35.32
34297;BME280;20564;42.902;25.336;2023-03-15T10:04:54;95760.78;;;14.11;35.14
34297;BME280;20564;42.902;25.336;2023-03-15T10:07:24;95765.91;;;14.19;35.19
34297;BME280;20564;42.902;25.336;2023-03-15T10:09:56;95755.78;;;14.30;35.04
34297;BME280;20564;42.902;25.336;2023-03-15T10:12:33;95753.16;;;14.43;34.83
34297;BME280;20564;42.902;25.336;2023-03-15T10:25:17;95749.22;;;14.26;34.99
34297;BME280;20564;42.902;25.336;2023-03-15T10:28:10;95755.94;;;14.21;34.92
34297;BME280;20564;42.902;25.336;2023-03-15T10:30:50;95746.63;;;14.39;34.33
34297;BME280;20564;42.902;25.336;2023-03-15T10:33:31;95742.97;;;14.46;34.58
34297;BME280;20564;42.902;25.336;2023-03-15T10:36:14;95743.28;;;14.71;34.27
34297;BME280;20564;42.902;25.336;2023-03-15T10:38:43;95733.53;;;14.92;34.44
34297;BME280;20564;42.902;25.336;2023-03-15T10:41:14;95726.97;;;15.28;33.58
34297;BME280;20564;42.902;25.336;2023-03-15T10:44:04;95716.53;;;15.59;33.64
34297;BME280;20564;42.902;25.336;2023-03-15T10:47:18;95726.31;;;15.72;32.56
34297;BME280;20564;42.902;25.336;2023-03-15T10:49:49;95729.19;;;15.77;32.97
34297;BME280;20564;42.902;25.336;2023-03-15T10:52:32;95736.47;;;15.95;33.23
34297;BME280;20564;42.902;25.336;2023-03-15T10:55:31;95723.88;;;16.29;33.26
34297;BME280;20564;42.902;25.336;2023-03-15T10:58:18;95721.06;;;16.55;32.05
34297;BME280;20564;42.902;25.336;2023-03-15T11:00:53;95713.06;;;16.62;31.62
34297;BME280;20564;42.902;25.336;2023-03-15T11:03:28;95714.63;;;16.76;32.72
34297;BME280;20564;42.902;25.336;2023-03-15T11:06:25;95715.09;;;16.98;31.85
34297;BME280;20564;42.902;25.336;2023-03-15T11:08:57;95709.59;;;17.18;30.68
34297;BME280;20564;42.902;25.336;2023-03-15T11:11:58;95723.13;;;17.17;30.71
34297;BME280;20564;42.902;25.336;2023-03-15T11:14:43;95707.94;;;17.24;31.81
34297;BME280;20564;42.902;25.336;2023-03-15T11:17:30;95709.97;;;17.22;32.23
34297;BME280;20564;42.902;25.336;2023-03-15T11:20:15;95717.03;;;17.09;33.23
34297;BME280;20564;42.902;25.336;2023-03-15T11:22:53;95707.28;;;17.03;32.67
34297;BME280;20564;42.902;25.336;2023-03-15T11:25:24;95709.78;;;16.98;33.69
34297;BME280;20564;42.902;25.336;2023-03-15T11:28:02;95702.97;;;16.71;30.99
34297;BME280;20564;42.902;25.336;2023-03-15T11:30:34;95697.16;;;16.55;32.07
34297;BME280;20564;42.902;25.336;2023-03-15T11:33:07;95707.91;;;16.67;32.85
34297;BME280;20564;42.902;25.336;2023-03-15T11:35:47;95697.63;;;16.84;33.24
34297;BME280;20564;42.902;25.336;2023-03-15T11:46:41;95684.72;;;17.13;31.37
34297;BME280;20564;42.902;25.336;2023-03-15T11:49:30;95674.88;;;17.13;32.74
34297;BME280;20564;42.902;25.336;2023-03-15T11:52:01;95671.72;;;17.04;31.18
34297;BME280;20564;42.902;25.336;2023-03-15T11:54:30;95671.81;;;16.91;32.90
34297;BME280;20564;42.902;25.336;2023-03-15T11:57:53;95672.13;;;16.70;31.80
34297;BME280;20564;42.902;25.336;2023-03-15T12:00:25;95678.56;;;16.55;32.82
34297;BME280;20564;42.902;25.336;2023-03-15T12:04:25;95675.56;;;16.45;32.14
34297;BME280;20564;42.902;25.336;2023-03-15T12:06:57;95668.28;;;16.34;32.36
34297;BME280;20564;42.902;25.336;2023-03-15T12:17:53;95673.94;;;16.12;34.24
34297;BME280;20564;42.902;25.336;2023-03-15T12:21:08;95677.22;;;16.01;33.29
34297;BME280;20564;42.902;25.336;2023-03-15T12:23:40;95677.91;;;15.90;34.00
34297;BME280;20564;42.902;25.336;2023-03-15T12:26:39;95678.13;;;15.82;34.58
34297;BME280;20564;42.902;25.336;2023-03-15T12:29:20;95676.94;;;15.64;34.87
34297;BME280;20564;42.902;25.336;2023-03-15T12:32:13;95679.41;;;15.59;35.20
34297;BME280;20564;42.902;25.336;2023-03-15T12:34:48;95678.78;;;15.71;34.61
34297;BME280;20564;42.902;25.336;2023-03-15T12:58:50;95694.00;;;15.10;38.36
34297;BME280;20564;42.902;25.336;2023-03-15T13:01:22;95692.16;;;15.11;37.95
34297;BME280;20564;42.902;25.336;2023-03-15T13:03:57;95695.81;;;14.97;37.28
34297;BME280;20564;42.902;25.336;2023-03-15T13:12:32;95690.09;;;14.66;38.74
34297;BME280;20564;42.902;25.336;2023-03-15T13:15:17;95691.75;;;14.74;39.40
34297;BME280;20564;42.902;25.336;2023-03-15T13:17:58;95687.44;;;14.80;39.70
34297;BME280;20564;42.902;25.336;2023-03-15T13:21:34;95699.09;;;14.92;38.79
34297;BME280;20564;42.902;25.336;2023-03-15T13:23:56;95701.31;;;15.08;38.79
34297;BME280;20564;42.902;25.336;2023-03-15T13:31:41;95694.97;;;15.23;38.67
34297;BME280;20564;42.902;25.336;2023-03-15T13:34:18;95703.16;;;15.21;38.37
34297;BME280;20564;42.902;25.336;2023-03-15T13:37:02;95700.28;;;15.03;38.41
34297;BME280;20564;42.902;25.336;2023-03-15T13:40:02;95703.78;;;15.03;38.96
34297;BME280;20564;42.902;25.336;2023-03-15T13:42:39;95712.53;;;15.10;38.01
34297;BME280;20564;42.902;25.336;2023-03-15T13:45:16;95707.25;;;15.10;37.90
34297;BME280;20564;42.902;25.336;2023-03-15T13:47:44;95722.28;;;15.10;38.44
34297;BME280;20564;42.902;25.336;2023-03-15T13:50:16;95712.94;;;15.07;39.01
34297;BME280;20564;42.902;25.336;2023-03-15T13:52:49;95713.75;;;15.01;38.92
34297;BME280;20564;42.902;25.336;2023-03-15T13:55:24;95714.56;;;14.82;39.69
34297;BME280;20564;42.902;25.336;2023-03-15T13:57:58;95710.09;;;14.89;39.30
34297;BME280;20564;42.902;25.336;2023-03-15T14:00:29;95720.28;;;14.92;39.24
34297;BME280;20564;42.902;25.336;2023-03-15T14:03:11;95722.72;;;14.93;39.11
34297;BME280;20564;42.902;25.336;2023-03-15T14:05:47;95727.19;;;15.06;39.36
34297;BME280;20564;42.902;25.336;2023-03-15T14:08:23;95735.16;;;15.13;39.12
34297;BME280;20564;42.902;25.336;2023-03-15T14:13:54;95738.81;;;15.18;38.83
34297;BME280;20564;42.902;25.336;2023-03-15T14:16:47;95742.69;;;14.89;37.48
34297;BME280;20564;42.902;25.336;2023-03-15T14:19:35;95743.69;;;14.75;38.38
34297;BME280;20564;42.902;25.336;2023-03-15T14:22:12;95746.34;;;14.75;38.89
34297;BME280;20564;42.902;25.336;2023-03-15T14:24:51;95751.63;;;14.68;39.46
34297;BME280;20564;42.902;25.336;2023-03-15T14:27:25;95754.66;;;14.65;39.32
34297;BME280;20564;42.902;25.336;2023-03-15T14:29:59;95745.06;;;14.51;38.48
34297;BME280;20564;42.902;25.336;2023-03-15T14:32:33;95757.84;;;14.41;39.87
34297;BME280;20564;42.902;25.336;2023-03-15T14:38:02;95756.59;;;14.37;38.20
34297;BME280;20564;42.902;25.336;2023-03-15T14:40:36;95753.72;;;14.32;38.24
34297;BME280;20564;42.902;25.336;2023-03-15T14:43:09;95753.53;;;14.27;38.82
34297;BME280;20564;42.902;25.336;2023-03-15T14:45:47;95750.63;;;14.21;39.09
34297;BME280;20564;42.902;25.336;2023-03-15T14:48:26;95754.09;;;14.22;40.00
34297;BME280;20564;42.902;25.336;2023-03-15T14:50:55;95752.69;;;14.19;38.79
34297;BME280;20564;42.902;25.336;2023-03-15T14:53:25;95749.41;;;14.17;39.31
34297;BME280;20564;42.902;25.336;2023-03-15T14:55:56;95757.13;;;14.12;38.58
34297;BME280;20564;42.902;25.336;2023-03-15T14:58:27;95766.47;;;14.08;39.25
34297;BME280;20564;42.902;25.336;2023-03-15T15:01:03;95760.91;;;13.90;39.63
34297;BME280;20564;42.902;25.336;2023-03-15T15:03:42;95760.81;;;13.77;39.66
34297;BME280;20564;42.902;25.336;2023-03-15T15:06:15;95754.38;;;13.51;40.74
34297;BME280;20564;42.902;25.336;2023-03-15T15:08:46;95768.50;;;13.37;42.55
34297;BME280;20564;42.902;25.336;2023-03-15T15:11:16;95766.38;;;13.25;41.04
34297;BME280;20564;42.902;25.336;2023-03-15T15:13:44;95779.31;;;13.20;41.63
34297;BME280;20564;42.902;25.336;2023-03-15T15:16:16;95778.03;;;13.10;41.45
34297;BME280;20564;42.902;25.336;2023-03-15T15:18:50;95782.88;;;13.06;40.46
34297;BME280;20564;42.902;25.336;2023-03-15T15:21:23;95784.25;;;13.02;40.17
34297;BME280;20564;42.902;25.336;2023-03-15T15:23:53;95794.94;;;12.94;40.60
34297;BME280;20564;42.902;25.336;2023-03-15T15:26:28;95790.66;;;12.93;40.93
34297;BME280;20564;42.902;25.336;2023-03-15T15:28:56;95780.03;;;12.86;41.19
34297;BME280;20564;42.902;25.336;2023-03-15T15:31:27;95783.44;;;12.80;41.67
34297;BME280;20564;42.902;25.336;2023-03-15T15:33:58;95786.63;;;12.75;41.19
34297;BME280;20564;42.902;25.336;2023-03-15T15:36:29;95784.13;;;12.67;41.97
34297;BME280;20564;42.902;25.336;2023-03-15T15:39:26;95788.13;;;12.63;42.23
34297;BME280;20564;42.902;25.336;2023-03-15T15:41:58;95783.75;;;12.70;42.36
34297;BME280;20564;42.902;25.336;2023-03-15T15:44:26;95784.94;;;12.68;41.73
34297;BME280;20564;42.902;25.336;2023-03-15T15:46:59;95798.44;;;12.79;42.39
34297;BME280;20564;42.902;25.336;2023-03-15T15:49:27;95785.00;;;12.74;42.84
34297;BME280;20564;42.902;25.336;2023-03-15T15:51:55;95802.91;;;12.79;41.74